MMZO/ZLO METAR and TAF weather

Enter ICAO airport designator
Station Type Date Time Source
MMZO METAR 2021/03/08 01:40 UTC NOAA

MMZO 080140Z 00000KT 10SM SCT200 25/20 A2990 RMK 8/004


Station Type Date Time Source
MMZO Decoded METAR 2021/03/08 01:40 UTC NOAA

Manzanillo International , Mexico (MMZO) 19-09N 104-34W
Mar 07, 2021 - 08:40 PM EST / 2021.03.08 0140 UTC
Wind: Calm:0
Visibility: 10 mile(s):0
Sky conditions: partly cloudy
Temperature: 77 F (25 C)
Dew Point: 68 F (20 C)
Relative Humidity: 73%
Pressure (altimeter): 29.9 in. Hg (1012 hPa)
ob: MMZO 080140Z 00000KT 10SM SCT200 25/20 A2990 RMK 8/004
cycle: 1

Station Type Date Time Source
MMZO TAF 2021/03/08 06:48 UTC NOAA

TAF MMZO 080441Z 0806/0906 00000KT P6SM SCT200
FM081600 20010KT P6SM SCT200
FM090200 16005KT P6SM SCT200

Example: see airport list